Time;durP1;ratioP1;P1;durP2;ratioP2;P2;SDS_P1;SDS_P2;PMS_P1;PMS_P2;Temp;Humidity;BMP_temperature;BMP_pressure;BME280_temperature;BME280_humidity;BME280_pressure;Samples;Min_cycle;Max_cycle;Signal;HPM_P1;HPM_P2
2023/10/20 00:00:38;;;;;;;16.30;14.70;;;14.90;99.90;;;;;;4998140;28;20507;-62
2023/10/20 00:03:06;;;;;;;14.80;13.23;;;14.90;99.90;;;;;;5001055;28;20906;-63
2023/10/20 00:05:35;;;;;;;15.63;14.13;;;14.90;99.90;;;;;;5000379;28;20844;-63
2023/10/20 00:08:02;;;;;;;16.33;14.60;;;15.00;99.90;;;;;;4999287;28;20522;-63
2023/10/20 00:10:35;;;;;;;17.30;14.50;;;15.00;99.90;;;;;;4996522;28;20497;-63
2023/10/20 00:13:02;;;;;;;14.97;13.37;;;14.90;99.90;;;;;;4997062;28;20540;-62
2023/10/20 00:15:30;;;;;;;15.70;13.80;;;15.00;99.90;;;;;;5004166;28;20461;-63
2023/10/20 00:17:57;;;;;;;16.60;14.80;;;15.00;99.90;;;;;;4997069;28;20457;-62
2023/10/20 00:20:26;;;;;;;16.13;14.17;;;15.00;99.90;;;;;;4995003;28;20468;-62
2023/10/20 00:22:53;;;;;;;14.90;13.17;;;15.00;99.90;;;;;;4996207;28;20488;-63
2023/10/20 00:25:20;;;;;;;16.43;14.47;;;15.00;99.90;;;;;;4995439;28;20477;-63
2023/10/20 00:27:49;;;;;;;13.57;12.23;;;15.00;99.90;;;;;;4995728;28;20731;-63
2023/10/20 00:30:16;;;;;;;15.57;13.97;;;15.00;99.90;;;;;;4996059;28;20517;-63
2023/10/20 00:32:45;;;;;;;15.77;14.23;;;15.00;99.90;;;;;;4995857;28;20472;-63
2023/10/20 00:35:13;;;;;;;15.60;13.90;;;15.10;99.90;;;;;;4996040;28;20475;-63
2023/10/20 00:37:41;;;;;;;15.37;13.77;;;15.10;99.90;;;;;;4995500;28;20475;-64
2023/10/20 00:40:09;;;;;;;18.33;16.47;;;15.10;99.90;;;;;;4995657;28;21078;-64
2023/10/20 00:42:37;;;;;;;17.17;15.33;;;15.00;99.90;;;;;;4995538;28;20497;-64
2023/10/20 00:45:08;;;;;;;16.00;14.40;;;15.10;99.90;;;;;;4995945;28;20471;-63
2023/10/20 00:47:36;;;;;;;15.90;14.20;;;15.10;99.90;;;;;;4995989;28;20891;-64
2023/10/20 00:50:04;;;;;;;15.97;14.27;;;15.10;99.90;;;;;;4995526;28;20499;-64
2023/10/20 00:52:32;;;;;;;15.70;14.20;;;15.10;99.90;;;;;;4995903;28;20559;-63
2023/10/20 00:55:00;;;;;;;16.50;14.07;;;15.10;99.90;;;;;;4995921;28;20464;-63
2023/10/20 00:57:28;;;;;;;17.53;13.40;;;15.10;99.90;;;;;;4997031;28;20482;-64
2023/10/20 00:59:55;;;;;;;14.97;13.57;;;15.10;99.90;;;;;;4996854;28;20454;-64
2023/10/20 01:02:24;;;;;;;14.17;12.77;;;15.10;99.90;;;;;;4997001;28;20552;-64
2023/10/20 01:04:51;;;;;;;14.00;12.70;;;15.10;99.90;;;;;;4997290;28;20483;-65
2023/10/20 01:07:18;;;;;;;13.47;12.07;;;15.00;99.90;;;;;;4996931;28;20539;-64
2023/10/20 01:09:46;;;;;;;14.60;13.13;;;15.00;99.90;;;;;;4996282;28;20548;-65
2023/10/20 01:12:13;;;;;;;14.60;13.10;;;15.10;99.90;;;;;;4996744;28;20892;-64
2023/10/20 01:14:40;;;;;;;16.03;13.70;;;15.00;99.90;;;;;;4996999;28;20510;-64
2023/10/20 01:17:09;;;;;;;13.97;12.67;;;15.10;99.90;;;;;;4996820;28;20929;-64
2023/10/20 01:19:38;;;;;;;15.13;13.63;;;15.10;99.90;;;;;;4996262;28;20518;-63
2023/10/20 01:22:05;;;;;;;15.00;13.50;;;15.10;99.90;;;;;;4996688;28;20467;-63
2023/10/20 01:24:34;;;;;;;13.50;12.30;;;15.10;99.90;;;;;;4996255;28;21022;-62
2023/10/20 01:27:01;;;;;;;13.43;11.90;;;15.10;99.90;;;;;;4996616;28;20460;-62
2023/10/20 01:29:31;;;;;;;13.60;12.30;;;15.10;99.90;;;;;;4996664;28;20746;-62
2023/10/20 01:31:58;;;;;;;13.60;12.03;;;15.10;99.90;;;;;;4996098;28;20528;-63
2023/10/20 01:34:25;;;;;;;12.53;11.43;;;15.10;99.90;;;;;;4996541;28;20852;-62
2023/10/20 01:36:53;;;;;;;10.63;9.63;;;15.10;99.90;;;;;;4996472;28;20461;-63
2023/10/20 01:39:20;;;;;;;12.13;10.93;;;15.10;99.90;;;;;;4996413;28;20461;-62
2023/10/20 01:41:49;;;;;;;9.60;8.70;;;15.20;99.90;;;;;;4995862;28;20460;-62
2023/10/20 01:44:16;;;;;;;11.20;10.20;;;15.20;99.90;;;;;;4995572;28;20547;-63
2023/10/20 01:46:49;;;;;;;11.13;10.03;;;15.20;99.90;;;;;;4996280;28;20465;-62
2023/10/20 01:49:16;;;;;;;10.03;9.03;;;15.20;99.90;;;;;;4996727;28;20724;-62
2023/10/20 01:51:43;;;;;;;10.20;9.20;;;15.20;99.90;;;;;;4995730;28;20493;-62
2023/10/20 01:54:10;;;;;;;9.33;8.37;;;15.20;99.90;;;;;;4996067;28;20472;-62
2023/10/20 01:56:38;;;;;;;9.90;8.57;;;15.20;99.90;;;;;;4996073;28;20461;-62
2023/10/20 01:59:06;;;;;;;8.23;7.43;;;15.30;99.90;;;;;;4996078;28;20461;-62
2023/10/20 02:01:34;;;;;;;8.77;7.87;;;15.30;99.90;;;;;;4996231;28;20457;-62
2023/10/20 02:04:01;;;;;;;9.57;8.67;;;15.30;99.90;;;;;;4996150;28;20465;-62
2023/10/20 02:06:28;;;;;;;7.73;7.03;;;15.30;99.90;;;;;;4995602;28;20467;-62
2023/10/20 02:08:55;;;;;;;7.30;6.60;;;15.30;99.90;;;;;;4996003;28;20825;-62
2023/10/20 02:11:23;;;;;;;7.30;6.23;;;15.30;99.90;;;;;;4995948;28;21098;-62
2023/10/20 02:13:50;;;;;;;7.30;6.60;;;15.30;99.90;;;;;;4995006;28;20473;-62
2023/10/20 02:16:18;;;;;;;6.60;6.00;;;15.30;99.90;;;;;;4995220;28;20876;-62
2023/10/20 02:18:46;;;;;;;6.30;5.70;;;15.30;99.90;;;;;;4995768;28;20544;-62
2023/10/20 02:21:13;;;;;;;6.70;5.40;;;15.30;99.90;;;;;;4995803;28;20464;-62
2023/10/20 02:23:40;;;;;;;5.93;5.20;;;15.30;99.90;;;;;;4995954;28;20468;-62
2023/10/20 02:26:09;;;;;;;7.63;5.03;;;15.30;99.90;;;;;;4956501;28;20462;-62
2023/10/20 02:28:37;;;;;;;6.50;5.70;;;15.30;99.90;;;;;;4955947;28;20466;-61
2023/10/20 02:31:12;;;;;;;5.00;4.50;;;15.30;99.90;;;;;;4956463;28;20502;-62
2023/10/20 02:33:41;;;;;;;6.33;5.20;;;15.30;99.90;;;;;;4956671;28;20803;-62
2023/10/20 02:36:08;;;;;;;5.47;4.97;;;15.40;99.90;;;;;;4957034;28;20462;-62
2023/10/20 02:38:36;;;;;;;5.07;4.57;;;15.30;1.00;;;;;;4956697;28;20469;-62
2023/10/20 02:41:04;;;;;;;6.27;4.10;;;15.30;1.00;;;;;;4957070;28;20874;-61
2023/10/20 02:43:31;;;;;;;4.63;3.87;;;15.30;1.00;;;;;;4956507;28;20470;-62
2023/10/20 02:45:58;;;;;;;6.27;4.47;;;15.30;1.00;;;;;;4956750;28;20858;-62
2023/10/20 02:48:27;;;;;;;4.53;4.13;;;15.30;1.00;;;;;;4956544;28;20556;-62
2023/10/20 02:50:55;;;;;;;6.87;4.50;;;15.30;1.00;;;;;;4956650;28;20494;-62
2023/10/20 02:53:22;;;;;;;4.90;4.40;;;15.20;1.00;;;;;;4956763;28;20467;-62
2023/10/20 02:55:50;;;;;;;4.33;3.93;;;15.20;1.00;;;;;;4955786;28;20459;-61
2023/10/20 02:58:17;;;;;;;4.70;4.30;;;15.20;4.30;;;;;;4956512;28;20957;-62
2023/10/20 03:00:45;;;;;;;5.33;4.00;;;15.20;33.10;;;;;;4956467;28;20463;-62
2023/10/20 03:03:13;;;;;;;4.20;3.80;;;15.20;6.50;;;;;;4956290;28;20488;-61
2023/10/20 03:05:43;;;;;;;5.57;4.37;;;15.20;15.70;;;;;;4956498;28;20561;-62
2023/10/20 03:08:12;;;;;;;4.37;3.90;;;15.20;43.10;;;;;;4956227;28;20872;-62
2023/10/20 03:10:40;;;;;;;4.73;4.13;;;15.20;4.10;;;;;;4956302;28;20503;-62
2023/10/20 03:13:07;;;;;;;4.13;3.73;;;15.20;1.00;;;;;;4956572;28;20566;-62
2023/10/20 03:15:34;;;;;;;4.90;4.40;;;15.20;1.00;;;;;;4955796;28;20918;-61
2023/10/20 03:18:02;;;;;;;4.63;4.17;;;15.20;1.00;;;;;;4955413;28;20522;-62
2023/10/20 03:20:30;;;;;;;4.77;4.37;;;15.20;1.00;;;;;;4956160;28;20608;-63
2023/10/20 03:22:57;;;;;;;6.17;4.63;;;15.20;1.00;;;;;;4956247;28;20467;-62
2023/10/20 03:25:26;;;;;;;6.93;3.77;;;15.20;1.00;;;;;;4983534;28;20506;-62
2023/10/20 03:27:53;;;;;;;4.70;4.30;;;15.20;1.00;;;;;;4994756;28;20506;-61
2023/10/20 03:30:23;;;;;;;5.43;4.93;;;15.20;1.00;;;;;;4994618;28;20825;-62
2023/10/20 03:32:53;;;;;;;8.70;5.43;;;15.10;1.00;;;;;;4994878;28;20460;-61
2023/10/20 03:35:21;;;;;;;5.43;4.93;;;15.10;1.00;;;;;;4994775;28;20623;-62
2023/10/20 03:37:54;;;;;;;5.43;4.90;;;15.20;1.00;;;;;;4994486;28;20983;-61
2023/10/20 03:40:30;;;;;;;6.70;5.37;;;15.10;1.00;;;;;;4994926;28;20465;-62
2023/10/20 03:42:58;;;;;;;6.90;5.17;;;15.20;1.00;;;;;;4994709;28;20460;-61
2023/10/20 03:45:25;;;;;;;6.30;5.70;;;15.10;99.90;;;;;;4994540;28;20541;-62
2023/10/20 03:47:53;;;;;;;5.70;5.03;;;15.20;99.90;;;;;;4994340;28;20732;-62
2023/10/20 03:50:21;;;;;;;5.40;4.90;;;15.20;99.90;;;;;;4994219;28;20457;-61
2023/10/20 03:52:49;;;;;;;5.20;4.70;;;15.10;99.90;;;;;;4994383;28;20493;-62
2023/10/20 03:55:16;;;;;;;5.70;5.10;;;15.10;99.90;;;;;;4994651;28;20461;-62
2023/10/20 03:57:47;;;;;;;5.20;4.70;;;15.10;99.90;;;;;;4994206;28;20464;-62
2023/10/20 04:00:28;;;;;;;5.13;4.60;;;15.10;99.90;;;;;;4994582;28;20852;-61
2023/10/20 04:02:56;;;;;;;6.50;4.20;;;15.10;1.00;;;;;;4994287;28;20469;-61
2023/10/20 04:05:24;;;;;;;5.43;4.50;;;15.00;1.00;;;;;;4994487;28;20891;-61
2023/10/20 04:07:51;;;;;;;4.50;3.90;;;15.00;1.00;;;;;;4994202;28;20755;-62
2023/10/20 04:10:19;;;;;;;4.50;4.10;;;15.00;1.00;;;;;;4994633;28;20871;-61
2023/10/20 04:12:52;;;;;;;5.53;4.43;;;15.00;1.00;;;;;;4994210;28;20775;-62
2023/10/20 04:15:25;;;;;;;5.97;4.10;;;15.00;1.00;;;;;;4992551;28;20461;-62
2023/10/20 04:17:53;;;;;;;6.10;4.33;;;15.00;1.00;;;;;;4994339;28;20465;-61
2023/10/20 04:20:23;;;;;;;4.83;4.33;;;15.00;1.00;;;;;;4994252;28;20500;-61
2023/10/20 04:22:52;;;;;;;4.27;3.87;;;15.00;1.00;;;;;;4994026;28;20435;-61
2023/10/20 04:25:21;;;;;;;4.50;3.80;;;15.00;1.00;;;;;;4993798;28;20495;-61
2023/10/20 04:27:51;;;;;;;4.63;4.00;;;15.00;1.00;;;;;;4994037;28;20461;-61
2023/10/20 04:58:11;;;;;;;4.50;3.00;;;14.80;99.90;;;;;;4990595;28;20537;-61
2023/10/20 05:00:42;;;;;;;5.10;2.77;;;14.80;99.90;;;;;;4997152;28;20460;-61
2023/10/20 05:03:33;;;;;;;2.90;2.43;;;14.80;99.90;;;;;;4997146;28;20868;-61
2023/10/20 05:08:59;;;;;;;3.73;3.07;;;14.80;99.90;;;;;;5049744;28;20548;-62
2023/10/20 05:11:26;;;;;;;3.43;3.07;;;14.80;99.90;;;;;;5051081;28;20481;-62
2023/10/20 05:13:53;;;;;;;5.07;2.93;;;14.80;99.90;;;;;;5049964;28;20465;-62
2023/10/20 05:16:22;;;;;;;3.20;2.30;;;14.80;99.90;;;;;;5049654;28;20519;-62
2023/10/20 05:18:49;;;;;;;3.53;2.87;;;14.80;99.90;;;;;;5050530;28;20455;-62
2023/10/20 05:21:18;;;;;;;3.80;3.17;;;14.80;99.90;;;;;;5050696;28;20538;-62
2023/10/20 05:23:46;;;;;;;3.60;2.73;;;14.70;99.90;;;;;;5050793;28;20894;-62
2023/10/20 05:26:15;;;;;;;4.60;3.57;;;14.70;99.90;;;;;;5050278;28;20459;-62
2023/10/20 05:28:42;;;;;;;5.23;4.60;;;14.70;99.90;;;;;;5050633;28;20490;-62
2023/10/20 05:31:09;;;;;;;5.67;4.80;;;14.60;99.90;;;;;;5050546;28;20581;-63
2023/10/20 05:33:36;;;;;;;6.83;6.13;;;14.60;99.90;;;;;;5050854;28;20491;-64
2023/10/20 05:36:04;;;;;;;7.97;6.87;;;14.50;99.90;;;;;;5049307;28;20462;-64
2023/10/20 05:38:31;;;;;;;7.27;6.27;;;14.50;99.90;;;;;;5049377;28;20511;-66
2023/10/20 05:41:00;;;;;;;7.33;6.43;;;14.40;99.90;;;;;;5049378;28;20458;-67
2023/10/20 05:43:30;;;;;;;7.77;6.97;;;14.40;99.90;;;;;;5049399;28;20858;-66
2023/10/20 05:45:57;;;;;;;8.23;6.90;;;14.30;99.90;;;;;;5049310;28;20887;-66
2023/10/20 05:48:24;;;;;;;8.43;7.00;;;14.30;99.90;;;;;;5049226;28;20490;-65
2023/10/20 05:50:57;;;;;;;7.63;6.93;;;14.30;99.90;;;;;;5049460;28;20802;-66
2023/10/20 05:53:24;;;;;;;7.80;7.03;;;14.30;99.90;;;;;;5046447;28;20474;-66
2023/10/20 05:55:51;;;;;;;8.30;7.50;;;14.30;99.90;;;;;;5048599;28;20473;-66
2023/10/20 05:58:19;;;;;;;7.53;6.80;;;14.30;99.90;;;;;;5047502;28;20946;-66
2023/10/20 06:00:48;;;;;;;10.47;7.10;;;14.20;99.90;;;;;;5048325;28;20541;-66
2023/10/20 06:03:15;;;;;;;8.20;7.40;;;14.10;99.90;;;;;;5047239;28;20497;-65
2023/10/20 06:05:44;;;;;;;7.73;6.93;;;14.10;99.90;;;;;;5046854;28;20463;-65
2023/10/20 06:08:11;;;;;;;8.77;6.90;;;14.10;99.90;;;;;;5050022;28;20806;-65
2023/10/20 06:10:38;;;;;;;8.33;7.03;;;14.10;99.90;;;;;;5039541;28;20460;-65
2023/10/20 06:13:05;;;;;;;16.43;8.17;;;14.10;99.90;;;;;;5034929;28;20783;-65
2023/10/20 06:15:33;;;;;;;8.03;6.90;;;14.10;99.90;;;;;;5049378;28;20466;-64
2023/10/20 06:18:01;;;;;;;8.87;6.80;;;14.00;99.90;;;;;;5049422;28;20437;-64
2023/10/20 06:20:28;;;;;;;8.80;8.00;;;14.00;99.90;;;;;;5047487;28;20570;-64
2023/10/20 06:22:55;;;;;;;8.53;7.50;;;14.00;99.90;;;;;;5036394;28;20465;-65
2023/10/20 06:25:23;;;;;;;11.77;8.00;;;14.00;99.90;;;;;;5036673;28;20464;-65
2023/10/20 06:27:50;;;;;;;9.17;8.00;;;14.00;99.90;;;;;;5036323;28;20764;-65
2023/10/20 06:30:21;;;;;;;8.13;7.27;;;14.00;99.90;;;;;;5035881;28;20459;-65
2023/10/20 06:32:56;;;;;;;10.43;8.40;;;13.90;99.90;;;;;;5036102;28;20470;-66
2023/10/20 06:35:32;;;;;;;10.43;7.90;;;13.90;99.90;;;;;;5036548;28;20799;-66
2023/10/20 06:38:11;;;;;;;7.77;6.97;;;13.90;99.90;;;;;;5035568;28;20498;-66
2023/10/20 06:40:40;;;;;;;8.87;7.90;;;13.90;99.90;;;;;;5036019;28;20892;-66
2023/10/20 06:43:08;;;;;;;8.53;7.67;;;13.90;99.90;;;;;;5036189;28;20459;-66
2023/10/20 06:45:35;;;;;;;10.93;7.97;;;13.90;99.90;;;;;;5035979;28;20462;-66
2023/10/20 06:48:03;;;;;;;7.97;7.20;;;13.90;99.90;;;;;;5035449;28;20591;-66
2023/10/20 06:50:31;;;;;;;8.67;7.70;;;13.90;99.90;;;;;;5035541;28;20550;-67
2023/10/20 06:52:59;;;;;;;8.93;7.47;;;13.90;99.90;;;;;;5035817;28;20791;-66
2023/10/20 06:55:27;;;;;;;10.50;9.00;;;13.90;99.90;;;;;;5035985;28;20520;-67
2023/10/20 06:57:54;;;;;;;8.73;7.60;;;13.90;99.90;;;;;;5033217;28;20471;-67
2023/10/20 07:00:21;;;;;;;9.13;7.90;;;13.90;99.90;;;;;;5029715;28;20474;-69
2023/10/20 07:02:49;;;;;;;9.17;8.23;;;13.90;99.90;;;;;;5035810;28;20802;-68
2023/10/20 07:05:17;;;;;;;8.50;7.50;;;13.90;99.90;;;;;;5036149;28;20884;-67
2023/10/20 07:07:45;;;;;;;9.07;8.27;;;13.90;99.90;;;;;;5034892;28;20506;-67
2023/10/20 07:10:13;;;;;;;8.23;7.43;;;14.00;99.90;;;;;;5035114;28;20455;-67
2023/10/20 07:12:40;;;;;;;8.10;7.30;;;14.00;99.90;;;;;;5035105;28;20456;-67
2023/10/20 07:15:08;;;;;;;8.70;7.90;;;14.00;99.90;;;;;;5035295;28;20727;-68
2023/10/20 07:17:35;;;;;;;9.10;8.10;;;14.00;99.90;;;;;;5035681;28;20746;-67
2023/10/20 07:20:05;;;;;;;8.50;7.60;;;14.00;99.90;;;;;;5035394;28;20939;-67
2023/10/20 07:22:33;;;;;;;9.37;8.10;;;14.00;99.90;;;;;;5035307;28;20460;-67
2023/10/20 07:25:02;;;;;;;9.20;7.67;;;14.00;99.90;;;;;;5034527;28;20466;-66
2023/10/20 07:27:31;;;;;;;8.93;8.13;;;14.00;99.90;;;;;;5033671;28;20459;-67
2023/10/20 07:29:58;;;;;;;9.00;8.10;;;14.10;99.90;;;;;;5033447;28;20471;-67
2023/10/20 07:32:25;;;;;;;9.70;8.37;;;14.10;99.90;;;;;;5033006;28;20441;-65
2023/10/20 07:34:52;;;;;;;9.07;7.80;;;14.00;99.90;;;;;;5033050;28;20518;-66
2023/10/20 07:37:19;;;;;;;9.40;8.40;;;14.10;99.90;;;;;;5033861;28;20979;-66
2023/10/20 07:39:47;;;;;;;8.60;7.80;;;14.10;99.90;;;;;;5034292;28;20463;-67
2023/10/20 07:42:19;;;;;;;10.93;8.70;;;14.10;99.90;;;;;;5035376;28;20467;-65
2023/10/20 07:44:47;;;;;;;8.70;7.77;;;14.10;99.90;;;;;;5035201;28;20478;-68
2023/10/20 07:47:17;;;;;;;12.63;8.90;;;14.20;99.90;;;;;;5035278;28;20824;-68
2023/10/20 07:49:45;;;;;;;9.47;8.57;;;14.10;99.90;;;;;;5035360;28;20505;-68
2023/10/20 07:52:12;;;;;;;9.80;8.10;;;14.10;99.90;;;;;;5034824;28;20531;-69
2023/10/20 07:54:39;;;;;;;10.30;8.60;;;14.10;99.90;;;;;;5034841;28;20459;-69
2023/10/20 07:57:07;;;;;;;8.10;7.37;;;14.10;99.90;;;;;;5035252;28;20549;-68
2023/10/20 07:59:35;;;;;;;8.13;7.43;;;14.10;99.90;;;;;;5034974;28;21001;-69
2023/10/20 08:02:05;;;;;;;8.87;7.90;;;14.10;99.90;;;;;;5034829;28;20546;-69
2023/10/20 08:04:32;;;;;;;8.20;7.40;;;14.10;99.90;;;;;;5034934;28;20499;-69
2023/10/20 08:07:00;;;;;;;7.90;7.20;;;14.20;99.90;;;;;;5034645;28;20906;-67
2023/10/20 08:09:27;;;;;;;7.97;7.27;;;14.20;99.90;;;;;;5034911;28;20495;-66
2023/10/20 08:11:56;;;;;;;8.47;7.67;;;14.10;99.90;;;;;;5034789;28;20800;-67
2023/10/20 08:14:26;;;;;;;8.90;7.90;;;14.20;99.90;;;;;;5034697;28;20516;-67
2023/10/20 08:16:55;;;;;;;8.00;7.20;;;14.20;99.90;;;;;;5035122;28;20464;-67
2023/10/20 08:19:22;;;;;;;8.27;6.63;;;14.30;99.90;;;;;;5034602;28;20517;-66
2023/10/20 08:21:49;;;;;;;7.57;6.80;;;14.30;99.90;;;;;;5034773;28;20455;-67
2023/10/20 08:24:16;;;;;;;8.30;7.00;;;14.30;99.90;;;;;;5034264;28;20549;-68
2023/10/20 08:26:43;;;;;;;7.03;6.33;;;14.40;99.90;;;;;;5034094;28;20465;-67
2023/10/20 08:29:11;;;;;;;7.77;7.00;;;14.40;99.90;;;;;;5034444;28;20573;-67
2023/10/20 08:31:39;;;;;;;8.13;7.30;;;14.40;99.90;;;;;;5034792;28;20520;-68
2023/10/20 08:34:09;;;;;;;7.97;7.10;;;14.50;99.90;;;;;;5034270;28;20498;-68
2023/10/20 08:36:36;;;;;;;8.57;6.63;;;14.50;99.90;;;;;;5037718;27;20459;-68
2023/10/20 08:39:13;;;;;;;5.83;5.27;;;14.40;99.90;;;;;;5033401;28;20455;-68
2023/10/20 08:41:43;;;;;;;7.00;6.37;;;14.50;99.90;;;;;;5033435;28;20455;-68
2023/10/20 08:44:11;;;;;;;7.80;6.30;;;14.50;99.90;;;;;;5034405;28;20554;-68
2023/10/20 08:46:40;;;;;;;8.53;7.53;;;14.50;99.90;;;;;;5034361;28;20792;-68
2023/10/20 08:49:09;;;;;;;8.30;7.50;;;14.60;99.90;;;;;;5034612;28;20491;-67
2023/10/20 08:51:38;;;;;;;8.40;7.57;;;14.60;99.90;;;;;;5034627;28;20864;-66
2023/10/20 08:54:08;;;;;;;7.43;6.17;;;14.60;99.90;;;;;;5033735;28;20464;-67
2023/10/20 08:56:36;;;;;;;7.30;6.60;;;14.60;99.90;;;;;;5034161;28;20860;-66
2023/10/20 08:59:03;;;;;;;8.80;6.77;;;14.60;99.90;;;;;;5034349;28;20479;-67
2023/10/20 09:01:30;;;;;;;8.83;7.40;;;14.70;99.90;;;;;;5034038;28;20495;-67
2023/10/20 09:03:59;;;;;;;7.40;6.70;;;14.70;99.90;;;;;;5033916;28;20882;-66
2023/10/20 09:06:28;;;;;;;7.97;6.43;;;14.70;99.90;;;;;;5033827;28;20532;-66
2023/10/20 09:08:58;;;;;;;7.27;6.23;;;14.80;99.90;;;;;;5015445;28;20492;-65
2023/10/20 09:11:30;;;;;;;7.60;6.60;;;14.80;99.90;;;;;;5033958;28;20473;-66
2023/10/20 09:13:59;;;;;;;8.20;7.10;;;14.80;99.90;;;;;;5033805;28;20876;-67
2023/10/20 09:16:27;;;;;;;8.40;6.63;;;14.80;99.90;;;;;;5034124;28;20846;-67
2023/10/20 09:18:55;;;;;;;7.17;6.43;;;14.80;99.90;;;;;;5033133;28;20455;-67
2023/10/20 09:21:25;;;;;;;8.17;6.70;;;14.70;99.90;;;;;;5033734;28;20473;-68
2023/10/20 09:23:58;;;;;;;7.20;6.50;;;14.70;99.90;;;;;;5033893;28;20515;-68
2023/10/20 09:26:27;;;;;;;7.33;6.53;;;14.70;99.90;;;;;;5033708;28;20868;-68
2023/10/20 09:28:56;;;;;;;7.73;6.93;;;14.80;99.90;;;;;;5033465;28;20942;-68
2023/10/20 09:31:24;;;;;;;7.47;6.77;;;14.90;99.90;;;;;;5114975;28;20549;-67
2023/10/20 09:33:52;;;;;;;8.60;6.97;;;14.80;99.90;;;;;;5041151;27;20550;-67
2023/10/20 09:36:20;;;;;;;7.70;6.90;;;14.70;99.90;;;;;;5033070;28;20476;-68
2023/10/20 09:38:51;;;;;;;12.00;7.27;;;14.70;99.90;;;;;;5032825;28;20567;-67
2023/10/20 09:41:22;;;;;;;8.10;7.30;;;14.70;99.90;;;;;;5033550;28;20487;-68
2023/10/20 09:43:52;;;;;;;8.40;6.80;;;14.80;99.90;;;;;;5033247;28;20872;-67
2023/10/20 09:46:38;;;;;;;7.33;6.63;;;14.80;99.90;;;;;;5032946;28;20499;-67
2023/10/20 09:49:14;;;;;;;7.43;6.77;;;14.80;99.90;;;;;;5033158;28;21006;-67
2023/10/20 09:51:45;;;;;;;8.67;6.50;;;14.80;99.90;;;;;;5033873;28;20459;-66
2023/10/20 09:54:14;;;;;;;7.03;6.37;;;14.80;99.90;;;;;;5034195;28;20463;-66
2023/10/20 09:56:44;;;;;;;7.10;6.40;;;14.90;99.90;;;;;;5036683;28;20483;-67
2023/10/20 09:59:17;;;;;;;9.17;6.17;;;14.90;99.90;;;;;;5037259;28;20789;-67
2023/10/20 10:01:45;;;;;;;6.27;5.67;;;15.00;99.90;;;;;;5036969;28;20762;-67
2023/10/20 10:04:13;;;;;;;8.37;5.80;;;15.00;99.90;;;;;;5032858;28;20475;-66
2023/10/20 10:06:45;;;;;;;6.67;5.97;;;15.10;99.90;;;;;;5034801;28;20470;-67
2023/10/20 10:09:15;;;;;;;6.07;5.50;;;15.10;99.90;;;;;;5035444;28;20802;-67
2023/10/20 10:11:44;;;;;;;9.47;6.20;;;15.10;99.90;;;;;;5036207;28;20561;-67
2023/10/20 10:14:19;;;;;;;6.73;6.03;;;15.10;99.90;;;;;;5035903;28;20550;-66
2023/10/20 10:16:53;;;;;;;7.07;5.77;;;15.10;99.90;;;;;;5036067;28;20469;-67
2023/10/20 10:19:21;;;;;;;7.63;5.97;;;15.10;99.90;;;;;;5036353;28;20460;-66
2023/10/20 10:21:53;;;;;;;7.90;5.90;;;15.10;99.90;;;;;;5036878;28;20455;-67
2023/10/20 10:24:21;;;;;;;6.57;5.97;;;15.10;99.90;;;;;;5035997;28;20520;-67
2023/10/20 10:26:55;;;;;;;6.90;5.90;;;15.20;99.90;;;;;;5036369;28;20459;-68
2023/10/20 10:29:50;;;;;;;7.97;6.80;;;15.20;99.90;;;;;;5036471;28;20539;-67
2023/10/20 10:32:21;;;;;;;7.00;6.20;;;15.20;99.90;;;;;;5036301;28;20964;-68
2023/10/20 10:34:51;;;;;;;6.60;6.00;;;15.20;99.90;;;;;;5036494;28;20451;-68
2023/10/20 10:37:33;;;;;;;13.20;9.67;;;15.20;99.90;;;;;;5036449;28;20525;-68
2023/10/20 10:40:10;;;;;;;6.13;5.53;;;15.30;99.90;;;;;;5035801;28;20743;-68
2023/10/20 10:42:41;;;;;;;8.07;5.40;;;15.20;99.90;;;;;;5036007;28;20433;-68
2023/10/20 10:45:24;;;;;;;6.03;5.43;;;15.30;99.90;;;;;;5036045;28;20455;-68
2023/10/20 10:47:52;;;;;;;7.00;6.30;;;15.40;99.90;;;;;;5034401;28;20554;-69
2023/10/20 10:50:21;;;;;;;6.23;5.50;;;15.30;99.90;;;;;;5035335;28;20501;-68
2023/10/20 10:52:48;;;;;;;7.30;5.27;;;15.40;99.90;;;;;;5036241;28;20527;-68
2023/10/20 10:55:15;;;;;;;6.30;5.70;;;15.60;99.90;;;;;;5035620;28;20463;-69
2023/10/20 10:57:44;;;;;;;7.07;5.23;;;15.60;99.90;;;;;;5036243;28;20483;-67
2023/10/20 11:00:15;;;;;;;7.60;6.60;;;15.70;99.90;;;;;;5035461;28;20459;-68
2023/10/20 11:02:43;;;;;;;6.13;5.53;;;15.90;99.90;;;;;;5036153;28;20459;-68
2023/10/20 11:05:11;;;;;;;6.17;5.67;;;16.00;99.90;;;;;;5036151;28;20459;-68
2023/10/20 11:07:38;;;;;;;6.50;5.80;;;16.10;99.90;;;;;;5035508;28;20511;-68
2023/10/20 11:10:07;;;;;;;7.50;5.77;;;16.10;99.90;;;;;;5035395;28;20538;-69
2023/10/20 11:12:35;;;;;;;8.97;6.23;;;16.10;99.90;;;;;;5035662;28;20438;-68
2023/10/20 11:15:04;;;;;;;6.27;5.67;;;16.20;99.90;;;;;;5034982;28;20463;-68
2023/10/20 11:17:32;;;;;;;6.67;5.97;;;16.10;99.90;;;;;;5035764;28;20464;-68
2023/10/20 11:19:59;;;;;;;6.13;5.53;;;16.10;99.90;;;;;;5038890;27;20516;-68
2023/10/20 11:22:26;;;;;;;6.03;5.43;;;16.00;99.90;;;;;;5034179;28;20864;-68
2023/10/20 11:24:59;;;;;;;5.80;5.30;;;16.00;99.90;;;;;;5034502;28;20463;-68
2023/10/20 11:27:26;;;;;;;5.83;5.23;;;16.00;99.90;;;;;;5035210;28;20494;-67
2023/10/20 11:29:53;;;;;;;5.77;5.20;;;16.00;99.90;;;;;;5034285;28;20494;-67
2023/10/20 11:32:22;;;;;;;5.83;5.23;;;16.00;99.90;;;;;;5049817;27;20551;-68
2023/10/20 11:34:50;;;;;;;7.07;5.20;;;15.90;99.90;;;;;;5111787;27;20434;-67
2023/10/20 11:37:17;;;;;;;5.47;4.97;;;15.90;99.90;;;;;;5032707;28;20872;-68
2023/10/20 11:39:45;;;;;;;5.40;4.60;;;15.80;99.90;;;;;;5032173;28;20481;-67
2023/10/20 11:42:12;;;;;;;5.83;4.93;;;15.80;99.90;;;;;;5027228;28;20472;-67
2023/10/20 11:44:40;;;;;;;6.03;5.43;;;15.80;99.90;;;;;;5027243;28;20483;-67
2023/10/20 11:47:07;;;;;;;6.43;5.50;;;15.70;99.90;;;;;;5032814;28;20463;-67
2023/10/20 11:49:36;;;;;;;5.97;5.00;;;15.60;99.90;;;;;;5034682;27;20503;-68
2023/10/20 11:52:07;;;;;;;5.70;5.10;;;15.50;99.90;;;;;;5021639;28;20912;-68
2023/10/20 11:54:34;;;;;;;6.63;5.33;;;15.40;99.90;;;;;;5028853;28;20475;-68
2023/10/20 11:57:02;;;;;;;7.13;5.67;;;15.40;99.90;;;;;;5031904;28;20483;-67
2023/10/20 11:59:29;;;;;;;5.80;5.13;;;15.30;99.90;;;;;;5032870;28;20550;-66
2023/10/20 12:01:56;;;;;;;5.63;4.90;;;15.20;99.90;;;;;;5033276;28;20559;-66
2023/10/20 12:04:24;;;;;;;6.80;5.10;;;15.20;99.90;;;;;;5033250;28;20466;-66
2023/10/20 12:06:52;;;;;;;6.50;5.33;;;15.20;99.90;;;;;;5032928;28;20517;-67
2023/10/20 12:09:21;;;;;;;7.80;5.50;;;15.20;99.90;;;;;;5034984;28;20534;-68
2023/10/20 12:11:48;;;;;;;7.23;5.93;;;15.10;99.90;;;;;;5034941;28;20458;-68
2023/10/20 12:14:16;;;;;;;6.30;5.70;;;15.10;99.90;;;;;;5040326;28;20506;-67
2023/10/20 12:16:44;;;;;;;6.10;5.50;;;15.00;99.90;;;;;;5032522;28;20799;-66
2023/10/20 12:19:17;;;;;;;7.43;5.93;;;15.00;99.90;;;;;;5033024;28;20516;-67
2023/10/20 12:21:44;;;;;;;7.30;5.93;;;15.10;99.90;;;;;;5033132;28;20517;-66
2023/10/20 12:24:13;;;;;;;6.47;5.87;;;15.20;99.90;;;;;;5027440;28;20554;-66
2023/10/20 12:26:41;;;;;;;6.27;5.67;;;15.20;99.90;;;;;;5027516;28;20542;-66
2023/10/20 12:29:08;;;;;;;7.90;5.57;;;15.20;99.90;;;;;;5033126;28;20526;-65
2023/10/20 12:31:35;;;;;;;6.10;5.50;;;15.40;99.90;;;;;;5033286;28;20466;-67
2023/10/20 12:34:02;;;;;;;6.90;6.10;;;15.40;99.90;;;;;;5033220;28;20742;-66
2023/10/20 12:36:31;;;;;;;7.27;5.93;;;15.40;99.90;;;;;;5033517;28;20491;-64
2023/10/20 12:39:00;;;;;;;5.57;4.93;;;15.40;99.90;;;;;;5033372;28;20475;-66
2023/10/20 12:41:28;;;;;;;7.10;5.30;;;15.50;99.90;;;;;;5033131;28;20463;-67
2023/10/20 12:43:56;;;;;;;5.30;4.80;;;15.60;99.90;;;;;;5032627;28;20896;-66
2023/10/20 12:46:23;;;;;;;5.20;4.70;;;15.60;99.90;;;;;;5032603;28;20967;-67
2023/10/20 12:48:51;;;;;;;8.90;5.63;;;15.70;99.90;;;;;;5031396;28;20567;-66
2023/10/20 12:51:18;;;;;;;6.07;5.27;;;15.90;99.90;;;;;;5032343;28;20456;-67
2023/10/20 12:53:46;;;;;;;5.73;5.00;;;15.90;99.90;;;;;;5032960;28;20463;-66
2023/10/20 12:56:13;;;;;;;5.87;5.17;;;16.00;99.90;;;;;;5032374;28;20508;-67
2023/10/20 12:58:42;;;;;;;5.30;4.80;;;16.00;99.90;;;;;;5033520;28;20459;-67
2023/10/20 13:01:09;;;;;;;5.80;5.20;;;15.90;99.90;;;;;;5032124;28;20456;-65
2023/10/20 13:03:37;;;;;;;5.93;5.20;;;15.80;99.90;;;;;;5032393;28;20540;-66
2023/10/20 13:06:06;;;;;;;5.60;5.00;;;15.80;99.90;;;;;;5032381;28;20459;-65
2023/10/20 13:08:34;;;;;;;6.93;5.20;;;15.80;99.90;;;;;;5032483;28;20578;-65
2023/10/20 13:11:01;;;;;;;5.53;4.80;;;15.70;99.90;;;;;;5033091;28;20527;-65
2023/10/20 13:13:32;;;;;;;6.67;5.97;;;15.70;99.90;;;;;;5033073;28;20463;-68
2023/10/20 13:16:02;;;;;;;8.00;5.27;;;15.60;99.90;;;;;;5032476;28;20467;-68
2023/10/20 13:18:30;;;;;;;6.97;5.47;;;15.50;99.90;;;;;;5032341;28;20463;-66
2023/10/20 13:20:58;;;;;;;6.60;5.33;;;15.50;99.90;;;;;;5032315;28;20456;-66
2023/10/20 13:23:26;;;;;;;12.47;6.30;;;15.40;99.90;;;;;;5032611;28;20491;-66